Time;durP1;ratioP1;P1;durP2;ratioP2;P2;SDS_P1;SDS_P2;PMS_P1;PMS_P2;Temp;Humidity;BMP_temperature;BMP_pressure;BME280_temperature;BME280_humidity;BME280_pressure;Samples;Min_cycle;Max_cycle;Signal;HPM_P1;HPM_P2
2022/11/05 00:10:01;;;;;;;0.00;0.00;;;9.20;99.90;;;;;;5051591;28;20216;-66
2022/11/05 00:17:54;;;;;;;0.00;0.00;;;9.20;99.90;;;;;;5051068;28;20193;-67
2022/11/05 00:20:21;;;;;;;0.00;0.00;;;9.20;99.90;;;;;;5048184;28;20181;-67
2022/11/05 00:25:32;;;;;;;0.00;0.00;;;9.30;99.90;;;;;;5051408;28;20227;-67
2022/11/05 00:28:02;;;;;;;0.00;0.00;;;9.30;99.90;;;;;;5051620;28;20181;-67
2022/11/05 00:30:29;;;;;;;0.00;0.00;;;9.30;99.90;;;;;;5051326;28;20217;-66
2022/11/05 00:33:00;;;;;;;0.00;0.00;;;9.30;99.90;;;;;;5051895;28;20577;-67
2022/11/05 00:35:26;;;;;;;0.00;0.00;;;9.40;99.90;;;;;;5051608;28;20181;-66
2022/11/05 00:37:52;;;;;;;0.20;0.20;;;9.40;99.90;;;;;;5054172;28;20550;-66
2022/11/05 00:40:18;;;;;;;0.00;0.00;;;9.40;99.90;;;;;;5055663;28;20177;-66
2022/11/05 00:45:29;;;;;;;0.00;0.00;;;9.40;99.90;;;;;;5055625;28;20234;-66
2022/11/05 00:50:39;;;;;;;0.43;0.43;;;9.50;99.90;;;;;;5055303;28;20216;-66
2022/11/05 00:53:05;;;;;;;0.00;0.00;;;9.50;99.90;;;;;;5055312;28;20178;-66
2022/11/05 00:55:41;;;;;;;0.00;0.00;;;9.50;99.90;;;;;;5055405;28;20588;-66
2022/11/05 00:58:10;;;;;;;0.00;0.00;;;9.50;99.90;;;;;;5055329;28;20196;-66
2022/11/05 01:00:37;;;;;;;0.00;0.00;;;9.50;99.90;;;;;;5055176;28;20550;-66
2022/11/05 01:03:06;;;;;;;0.00;0.00;;;9.40;99.90;;;;;;5040694;28;20177;-66
2022/11/05 01:05:33;;;;;;;0.00;0.00;;;9.40;99.90;;;;;;5055119;28;20177;-66
2022/11/05 01:07:59;;;;;;;0.20;0.20;;;9.40;99.90;;;;;;5055067;28;20226;-66
2022/11/05 01:10:26;;;;;;;0.00;0.00;;;9.40;99.90;;;;;;5055052;28;20220;-66
2022/11/05 01:12:51;;;;;;;0.00;0.00;;;9.40;99.90;;;;;;5055068;28;20185;-66
2022/11/05 01:15:18;;;;;;;0.00;0.00;;;9.30;99.90;;;;;;5054855;28;20178;-66
2022/11/05 01:17:43;;;;;;;0.00;0.00;;;9.30;99.90;;;;;;5054763;28;20256;-66
2022/11/05 01:20:10;;;;;;;0.20;0.13;;;9.30;99.90;;;;;;5054522;28;20277;-66
2022/11/05 01:22:36;;;;;;;0.00;0.00;;;9.30;99.90;;;;;;5054746;28;20268;-66
2022/11/05 01:25:01;;;;;;;0.30;0.13;;;9.30;99.90;;;;;;5054775;28;20173;-67
2022/11/05 01:27:27;;;;;;;0.00;0.00;;;9.30;99.90;;;;;;5054699;28;20256;-67
2022/11/05 01:29:52;;;;;;;0.10;0.10;;;9.20;99.90;;;;;;5054757;28;20573;-66
2022/11/05 01:32:18;;;;;;;0.00;0.00;;;9.20;99.90;;;;;;5054573;28;20534;-67
2022/11/05 01:34:43;;;;;;;0.00;0.00;;;9.20;99.90;;;;;;5054411;28;20644;-67
2022/11/05 01:37:09;;;;;;;0.00;0.00;;;9.20;99.90;;;;;;5054267;28;20196;-67
2022/11/05 01:39:35;;;;;;;0.10;0.10;;;9.20;99.90;;;;;;5054769;28;20181;-67
2022/11/05 01:42:00;;;;;;;0.00;0.00;;;9.20;99.90;;;;;;5053696;28;20174;-66
2022/11/05 01:44:53;;;;;;;0.00;0.00;;;9.20;99.90;;;;;;5054060;28;20192;-67
2022/11/05 01:47:31;;;;;;;0.00;0.00;;;9.20;99.90;;;;;;5053517;28;20177;-67
2022/11/05 01:50:01;;;;;;;0.00;0.00;;;9.20;99.90;;;;;;5052837;28;20216;-66
2022/11/05 01:52:30;;;;;;;0.00;0.00;;;9.20;99.90;;;;;;5052628;28;20603;-66
2022/11/05 01:54:57;;;;;;;0.10;0.10;;;9.30;99.90;;;;;;5054395;28;20182;-66
2022/11/05 01:57:22;;;;;;;0.00;0.00;;;9.30;99.90;;;;;;5053749;28;20268;-67
2022/11/05 01:59:53;;;;;;;0.03;0.03;;;9.30;99.90;;;;;;5054378;28;20271;-67
2022/11/05 02:02:19;;;;;;;0.00;0.00;;;9.40;99.90;;;;;;5054093;28;20236;-66
2022/11/05 02:04:50;;;;;;;0.00;0.00;;;9.40;99.90;;;;;;5054003;28;20185;-67
2022/11/05 02:07:17;;;;;;;0.00;0.00;;;9.30;99.90;;;;;;5055082;28;20518;-66
2022/11/05 02:10:12;;;;;;;0.17;0.17;;;9.50;99.90;;;;;;5053662;28;20205;-67
2022/11/05 02:12:40;;;;;;;0.00;0.00;;;9.30;99.90;;;;;;5054029;28;20761;-67
2022/11/05 02:15:08;;;;;;;0.00;0.00;;;9.30;99.90;;;;;;5052113;28;20636;-66
2022/11/05 02:17:50;;;;;;;0.05;0.05;;;9.30;99.90;;;;;;5051193;28;20189;-66
2022/11/05 02:20:35;;;;;;;0.10;0.10;;;9.30;99.90;;;;;;5053807;28;20185;-67
2022/11/05 02:23:22;;;;;;;0.08;0.08;;;9.30;99.90;;;;;;5053772;28;20705;-66
2022/11/05 02:26:14;;;;;;;0.00;0.00;;;9.30;99.90;;;;;;5039073;28;20196;-66
2022/11/05 02:29:14;;;;;;;0.10;0.10;;;9.30;99.90;;;;;;5053734;28;20196;-67
2022/11/05 02:32:04;;;;;;;0.00;0.00;;;9.30;99.90;;;;;;5053468;28;20192;-67
2022/11/05 02:34:36;;;;;;;0.00;0.00;;;9.30;99.90;;;;;;5053536;28;20258;-66
2022/11/05 02:37:09;;;;;;;0.10;0.10;;;9.30;99.90;;;;;;5053151;28;20264;-66
2022/11/05 02:39:47;;;;;;;0.00;0.00;;;9.30;99.90;;;;;;5053196;28;20186;-66
2022/11/05 02:42:33;;;;;;;0.00;0.00;;;9.30;99.90;;;;;;5053101;28;20257;-66
2022/11/05 02:45:10;;;;;;;0.00;0.00;;;9.30;99.90;;;;;;5053370;28;20185;-66
2022/11/05 02:47:41;;;;;;;0.08;0.08;;;9.30;99.90;;;;;;5053286;28;20644;-67
2022/11/05 02:50:28;;;;;;;0.05;0.05;;;9.40;99.90;;;;;;5053305;28;20726;-66
2022/11/05 02:53:02;;;;;;;0.13;0.13;;;9.40;99.90;;;;;;5052990;28;20176;-66
2022/11/05 02:55:58;;;;;;;0.10;0.10;;;9.40;99.90;;;;;;5048704;28;20185;-66
2022/11/05 02:58:26;;;;;;;0.15;0.15;;;9.40;99.90;;;;;;5041150;28;20180;-66
2022/11/05 03:00:53;;;;;;;0.00;0.00;;;9.50;99.90;;;;;;5052833;28;20644;-66
2022/11/05 03:03:40;;;;;;;0.50;0.50;;;9.50;99.90;;;;;;5052942;28;20196;-66
2022/11/05 03:06:23;;;;;;;0.00;0.00;;;9.50;99.90;;;;;;5038293;28;20269;-66
2022/11/05 03:08:51;;;;;;;0.00;0.00;;;9.50;99.90;;;;;;5052782;28;20256;-66
2022/11/05 03:11:20;;;;;;;0.00;0.00;;;9.50;99.90;;;;;;5051765;28;20216;-66
2022/11/05 03:13:51;;;;;;;0.00;0.00;;;9.50;99.90;;;;;;5052567;28;20181;-66
2022/11/05 03:16:43;;;;;;;0.00;0.00;;;9.50;99.90;;;;;;5052662;28;20268;-66
2022/11/05 03:19:12;;;;;;;0.00;0.00;;;9.50;99.90;;;;;;5052013;28;20554;-66
2022/11/05 03:21:51;;;;;;;0.00;0.00;;;9.50;99.90;;;;;;5048861;28;20236;-66
2022/11/05 03:24:23;;;;;;;0.00;0.00;;;9.50;99.90;;;;;;5037262;28;20185;-66
2022/11/05 03:27:04;;;;;;;0.00;0.00;;;9.50;99.90;;;;;;5052392;28;20180;-66
2022/11/05 03:29:39;;;;;;;0.00;0.00;;;9.50;99.90;;;;;;5052316;28;20249;-66
2022/11/05 03:32:07;;;;;;;0.00;0.00;;;9.50;99.90;;;;;;5052224;28;20632;-66
2022/11/05 03:34:41;;;;;;;0.25;0.25;;;9.50;99.90;;;;;;5052368;28;20185;-66
2022/11/05 03:37:08;;;;;;;0.10;0.10;;;9.50;99.90;;;;;;5052550;28;20189;-66
2022/11/05 03:39:46;;;;;;;0.00;0.00;;;9.50;99.90;;;;;;5052119;28;20557;-66
2022/11/05 03:42:16;;;;;;;0.10;0.10;;;9.60;99.90;;;;;;5051830;28;20589;-66
2022/11/05 03:44:47;;;;;;;0.00;0.00;;;9.60;99.90;;;;;;5052180;28;20243;-66
2022/11/05 03:47:35;;;;;;;0.10;0.10;;;9.60;99.90;;;;;;5051966;28;20616;-66
2022/11/05 03:50:26;;;;;;;0.00;0.00;;;9.60;99.90;;;;;;5051762;28;20209;-66
2022/11/05 03:52:57;;;;;;;0.00;0.00;;;9.60;99.90;;;;;;5052077;28;20293;-66
2022/11/05 03:55:28;;;;;;;0.00;0.00;;;9.60;99.90;;;;;;5052045;28;20181;-66
2022/11/05 03:57:56;;;;;;;0.00;0.00;;;9.60;99.90;;;;;;5052036;28;20170;-66
2022/11/05 04:00:22;;;;;;;0.00;0.00;;;9.60;99.90;;;;;;5050189;28;20189;-66
2022/11/05 04:02:48;;;;;;;0.00;0.00;;;9.60;99.90;;;;;;5051902;28;20182;-67
2022/11/05 04:05:13;;;;;;;0.00;0.00;;;9.60;99.90;;;;;;5051782;28;20236;-67
2022/11/05 04:13:25;;;;;;;0.10;0.10;;;9.60;99.90;;;;;;5051105;28;20187;-66
2022/11/05 04:18:39;;;;;;;0.10;0.10;;;9.70;99.90;;;;;;5035728;28;20184;-66
2022/11/05 04:24:09;;;;;;;0.08;0.08;;;9.70;99.90;;;;;;5051938;28;20543;-66
2022/11/05 04:26:37;;;;;;;0.00;0.00;;;9.60;99.90;;;;;;5051601;28;20182;-66
2022/11/05 04:31:47;;;;;;;0.30;0.30;;;9.70;99.90;;;;;;5052087;28;20666;-66
2022/11/05 04:34:12;;;;;;;0.00;0.00;;;9.70;99.90;;;;;;5051722;28;20256;-66
2022/11/05 04:36:38;;;;;;;0.10;0.10;;;9.70;99.90;;;;;;5051266;28;20544;-66
2022/11/05 04:39:03;;;;;;;0.00;0.00;;;9.70;99.90;;;;;;5051222;28;20169;-66
2022/11/05 04:41:29;;;;;;;0.65;0.52;;;9.70;99.90;;;;;;5051636;28;20217;-66
2022/11/05 04:43:54;;;;;;;0.10;0.10;;;9.70;99.90;;;;;;5051560;28;20260;-66
2022/11/05 04:46:20;;;;;;;0.00;0.00;;;9.70;99.90;;;;;;5051426;28;20595;-67
2022/11/05 04:48:45;;;;;;;0.00;0.00;;;9.70;99.90;;;;;;5051292;28;20181;-66
2022/11/05 04:51:11;;;;;;;0.00;0.00;;;9.70;99.90;;;;;;5051464;28;20189;-66
2022/11/05 04:53:36;;;;;;;0.10;0.10;;;9.70;99.90;;;;;;5051819;28;20176;-67
2022/11/05 04:56:20;;;;;;;0.00;0.00;;;9.70;99.90;;;;;;5051335;28;20640;-66
2022/11/05 04:58:46;;;;;;;0.10;0.10;;;9.70;99.90;;;;;;5051266;28;20776;-66
2022/11/05 05:01:17;;;;;;;0.00;0.00;;;9.70;99.90;;;;;;5051376;28;20192;-66
2022/11/05 05:03:46;;;;;;;0.00;0.00;;;9.70;99.90;;;;;;5051289;28;20675;-66
2022/11/05 05:06:11;;;;;;;0.00;0.00;;;9.70;99.90;;;;;;5051207;28;20201;-66
2022/11/05 05:08:37;;;;;;;0.00;0.00;;;9.70;99.90;;;;;;5052283;28;20221;-66
2022/11/05 05:11:05;;;;;;;0.00;0.00;;;9.60;99.90;;;;;;5051134;28;20190;-66
2022/11/05 05:13:30;;;;;;;0.10;0.10;;;9.60;99.90;;;;;;5050872;28;20193;-66
2022/11/05 05:15:56;;;;;;;0.05;0.05;;;9.60;99.90;;;;;;5051026;28;20182;-67
2022/11/05 05:18:21;;;;;;;0.00;0.00;;;9.60;99.90;;;;;;5051182;28;20205;-66
2022/11/05 05:23:31;;;;;;;0.00;0.00;;;9.60;99.90;;;;;;5053063;28;20180;-66
2022/11/05 05:25:59;;;;;;;0.00;0.00;;;9.70;99.90;;;;;;5054325;28;20182;-66
2022/11/05 05:28:26;;;;;;;0.00;0.00;;;9.70;99.90;;;;;;5054934;28;20224;-66
2022/11/05 05:30:52;;;;;;;0.00;0.00;;;9.70;99.90;;;;;;5054542;28;20797;-66
2022/11/05 05:33:17;;;;;;;0.10;0.10;;;9.70;99.90;;;;;;5054931;28;20256;-66
2022/11/05 05:35:43;;;;;;;0.47;0.47;;;9.70;99.90;;;;;;5053174;28;20173;-66
2022/11/05 05:38:09;;;;;;;0.00;0.00;;;9.70;99.90;;;;;;5054674;28;20181;-66
2022/11/05 05:40:34;;;;;;;0.03;0.03;;;9.70;99.90;;;;;;5054605;28;20668;-66
2022/11/05 05:43:00;;;;;;;0.00;0.00;;;9.70;99.90;;;;;;5054371;28;20655;-66
2022/11/05 05:45:25;;;;;;;0.10;0.10;;;9.70;99.90;;;;;;5054498;28;20178;-66
2022/11/05 05:47:53;;;;;;;0.00;0.00;;;9.70;99.90;;;;;;5054313;28;20208;-66
2022/11/05 05:50:19;;;;;;;0.03;0.03;;;9.70;99.90;;;;;;5054382;28;20217;-66
2022/11/05 05:52:44;;;;;;;0.00;0.00;;;9.60;99.90;;;;;;5052886;28;20192;-66
2022/11/05 05:55:11;;;;;;;0.57;0.40;;;9.70;99.90;;;;;;5038363;28;20530;-66
2022/11/05 05:57:37;;;;;;;0.00;0.00;;;9.60;99.90;;;;;;5054349;28;20181;-66
2022/11/05 06:00:04;;;;;;;0.00;0.00;;;9.60;99.90;;;;;;5054202;28;20770;-66
2022/11/05 06:02:30;;;;;;;0.00;0.00;;;9.60;99.90;;;;;;5054119;28;20665;-66
2022/11/05 06:04:56;;;;;;;0.10;0.10;;;9.60;99.90;;;;;;5053790;28;20196;-66
2022/11/05 06:07:22;;;;;;;0.00;0.00;;;9.50;99.90;;;;;;5053711;28;20264;-66
2022/11/05 06:09:47;;;;;;;0.13;0.13;;;9.60;99.90;;;;;;5053975;28;20289;-66
2022/11/05 06:12:13;;;;;;;0.28;0.20;;;9.50;99.90;;;;;;5054093;28;20177;-66
2022/11/05 06:14:39;;;;;;;0.45;0.45;;;9.50;99.90;;;;;;5053731;28;20668;-66
2022/11/05 06:17:06;;;;;;;0.00;0.00;;;9.50;99.90;;;;;;5054222;28;20193;-66
2022/11/05 06:19:31;;;;;;;0.00;0.00;;;9.50;99.90;;;;;;5054020;28;20552;-68
2022/11/05 06:21:57;;;;;;;0.20;0.20;;;9.50;99.90;;;;;;5054000;28;20263;-70
2022/11/05 06:24:22;;;;;;;0.20;0.20;;;9.50;99.90;;;;;;5052398;28;20316;-70
2022/11/05 06:26:48;;;;;;;0.15;0.15;;;9.50;99.90;;;;;;5053652;28;20742;-69
2022/11/05 06:29:13;;;;;;;0.00;0.00;;;9.50;99.90;;;;;;5053538;28;20280;-69
2022/11/05 06:31:39;;;;;;;0.00;0.00;;;9.40;99.90;;;;;;5053666;28;20185;-69
2022/11/05 06:34:04;;;;;;;0.00;0.00;;;9.40;99.90;;;;;;5053292;28;20184;-69
2022/11/05 06:36:30;;;;;;;0.00;0.00;;;9.30;99.90;;;;;;5052999;28;20182;-69
2022/11/05 06:38:55;;;;;;;0.00;0.00;;;9.30;99.90;;;;;;5053670;28;20272;-70
2022/11/05 06:41:21;;;;;;;0.00;0.00;;;9.30;99.90;;;;;;5052594;28;20713;-70
2022/11/05 06:43:47;;;;;;;0.00;0.00;;;9.20;99.90;;;;;;5053491;28;20174;-69
2022/11/05 06:46:12;;;;;;;0.00;0.00;;;9.30;99.90;;;;;;5053564;28;20217;-68
2022/11/05 06:48:38;;;;;;;0.00;0.00;;;9.30;99.90;;;;;;5053165;28;20288;-68
2022/11/05 06:51:05;;;;;;;0.00;0.00;;;9.30;99.90;;;;;;5052977;28;20696;-66
2022/11/05 06:53:30;;;;;;;0.00;0.00;;;9.30;99.90;;;;;;5051849;28;20185;-69
2022/11/05 06:55:56;;;;;;;0.00;0.00;;;9.30;99.90;;;;;;5053477;28;20196;-66
2022/11/05 06:58:22;;;;;;;0.10;0.10;;;9.30;99.90;;;;;;5053203;28;20209;-67
2022/11/05 07:00:47;;;;;;;0.00;0.00;;;9.20;99.90;;;;;;5052805;28;20181;-66
2022/11/05 07:03:13;;;;;;;0.00;0.00;;;9.20;99.90;;;;;;5052992;28;20185;-68
2022/11/05 07:05:45;;;;;;;0.40;0.20;;;9.20;99.90;;;;;;5053013;28;20177;-71
2022/11/05 07:08:11;;;;;;;0.00;0.00;;;9.20;99.90;;;;;;5052788;28;20707;-68
2022/11/05 07:10:36;;;;;;;0.10;0.10;;;9.20;99.90;;;;;;5052928;28;20347;-68
2022/11/05 07:13:02;;;;;;;0.00;0.00;;;9.10;99.90;;;;;;5052883;28;20177;-68
2022/11/05 07:15:27;;;;;;;0.75;0.75;;;9.10;99.90;;;;;;5052745;28;20231;-67
2022/11/05 07:17:57;;;;;;;0.00;0.00;;;9.10;99.90;;;;;;5052754;28;20174;-68
2022/11/05 07:20:23;;;;;;;0.10;0.10;;;9.00;99.90;;;;;;5052720;28;20252;-66
2022/11/05 07:22:49;;;;;;;0.03;0.03;;;9.00;99.90;;;;;;5051827;28;20271;-68
2022/11/05 07:25:15;;;;;;;0.00;0.00;;;9.00;99.90;;;;;;5052734;28;20640;-68
2022/11/05 07:27:40;;;;;;;0.00;0.00;;;8.90;99.90;;;;;;5051605;28;20178;-68
2022/11/05 07:30:08;;;;;;;0.00;0.00;;;8.90;99.90;;;;;;5051948;28;20252;-66
2022/11/05 07:32:38;;;;;;;0.00;0.00;;;8.90;99.90;;;;;;5052740;28;20584;-65
2022/11/05 07:35:04;;;;;;;0.00;0.00;;;8.90;99.90;;;;;;5052729;28;20268;-66
2022/11/05 07:37:30;;;;;;;0.00;0.00;;;8.90;99.90;;;;;;5055622;28;20190;-66
2022/11/05 07:39:55;;;;;;;0.00;0.00;;;8.90;99.90;;;;;;5061922;28;20185;-67
2022/11/05 07:42:21;;;;;;;0.00;0.00;;;8.80;99.90;;;;;;5052574;28;20177;-66
2022/11/05 07:44:47;;;;;;;0.00;0.00;;;8.80;99.90;;;;;;5069837;28;20184;-65
2022/11/05 07:47:12;;;;;;;0.00;0.00;;;8.80;99.90;;;;;;5071589;28;20169;-65
2022/11/05 07:49:38;;;;;;;0.00;0.00;;;8.70;99.90;;;;;;5072520;28;20370;-66
2022/11/05 07:52:03;;;;;;;0.00;0.00;;;8.70;99.90;;;;;;5072535;28;20169;-65
2022/11/05 07:54:29;;;;;;;0.55;0.17;;;8.70;99.90;;;;;;5072464;28;20180;-65
2022/11/05 07:56:54;;;;;;;0.00;0.00;;;8.60;99.90;;;;;;5054110;28;20659;-66
2022/11/05 07:59:20;;;;;;;0.00;0.00;;;8.60;99.90;;;;;;5052044;28;20656;-65
2022/11/05 08:01:45;;;;;;;0.00;0.00;;;8.60;99.90;;;;;;5052160;28;20573;-66
2022/11/05 08:04:11;;;;;;;0.00;0.00;;;8.60;99.90;;;;;;5051840;28;20526;-66
2022/11/05 08:06:37;;;;;;;0.00;0.00;;;8.60;99.90;;;;;;5052243;28;20645;-66
2022/11/05 08:09:02;;;;;;;0.28;0.28;;;8.70;99.90;;;;;;5051596;28;20277;-66
2022/11/05 08:11:28;;;;;;;0.10;0.10;;;8.80;99.90;;;;;;5051680;28;20644;-65
2022/11/05 08:13:53;;;;;;;0.00;0.00;;;8.80;99.90;;;;;;5051840;28;20181;-66
2022/11/05 08:16:19;;;;;;;0.00;0.00;;;8.90;99.90;;;;;;5052235;28;20525;-66
2022/11/05 08:18:45;;;;;;;0.10;0.10;;;8.90;99.90;;;;;;5050395;28;20645;-66
2022/11/05 08:21:11;;;;;;;0.00;0.00;;;8.90;99.90;;;;;;5051388;28;20695;-66
2022/11/05 08:23:38;;;;;;;0.00;0.00;;;8.90;99.90;;;;;;5051310;28;20209;-66
2022/11/05 08:26:04;;;;;;;0.00;0.00;;;8.90;99.90;;;;;;5051271;28;20213;-66
2022/11/05 08:28:29;;;;;;;0.15;0.13;;;8.80;99.90;;;;;;5051731;28;20232;-66
2022/11/05 08:30:56;;;;;;;0.43;0.43;;;8.80;99.90;;;;;;5051422;28;20684;-65
2022/11/05 08:33:23;;;;;;;0.35;0.35;;;8.80;99.90;;;;;;5051749;28;20169;-65
2022/11/05 08:35:49;;;;;;;0.00;0.00;;;8.80;99.90;;;;;;5051919;28;20204;-65
2022/11/05 08:38:17;;;;;;;0.03;0.03;;;8.80;99.90;;;;;;5050581;28;20173;-65
2022/11/05 08:40:51;;;;;;;0.00;0.00;;;8.90;99.90;;;;;;5051637;28;20272;-66
2022/11/05 08:43:17;;;;;;;0.00;0.00;;;9.00;99.90;;;;;;5051869;28;20189;-66
2022/11/05 08:45:43;;;;;;;0.65;0.22;;;9.00;99.90;;;;;;5051359;28;20185;-66
2022/11/05 08:48:14;;;;;;;0.00;0.00;;;9.10;99.90;;;;;;5051544;28;20181;-65
2022/11/05 08:50:40;;;;;;;0.00;0.00;;;9.10;99.90;;;;;;5050709;28;20205;-65
2022/11/05 08:53:06;;;;;;;0.45;0.45;;;9.10;99.90;;;;;;5051152;28;20189;-67
2022/11/05 08:55:32;;;;;;;0.00;0.00;;;9.10;99.90;;;;;;5051336;28;20542;-66
2022/11/05 08:57:59;;;;;;;0.00;0.00;;;9.10;99.90;;;;;;5048893;28;20192;-66
2022/11/05 09:00:27;;;;;;;0.10;0.10;;;9.10;99.90;;;;;;5055431;28;20295;-66
2022/11/05 09:02:52;;;;;;;0.13;0.13;;;9.10;99.90;;;;;;5055032;28;20186;-66
2022/11/05 09:05:18;;;;;;;0.20;0.20;;;9.10;99.90;;;;;;5054549;28;20192;-66
2022/11/05 09:07:44;;;;;;;0.10;0.10;;;9.10;99.90;;;;;;5054818;28;20761;-66
2022/11/05 09:10:09;;;;;;;0.08;0.08;;;9.10;99.90;;;;;;5055025;28;20214;-66
2022/11/05 09:12:35;;;;;;;0.00;0.00;;;9.10;99.90;;;;;;5054767;28;20211;-66
2022/11/05 09:15:01;;;;;;;0.00;0.00;;;9.10;99.90;;;;;;5055285;28;20185;-66
2022/11/05 09:17:26;;;;;;;0.00;0.00;;;9.00;99.90;;;;;;5055180;28;20166;-67
2022/11/05 09:19:52;;;;;;;0.17;0.17;;;9.10;99.90;;;;;;5055063;28;20181;-67
2022/11/05 09:22:17;;;;;;;0.98;0.85;;;9.10;99.90;;;;;;5054307;28;20181;-67
2022/11/05 09:24:43;;;;;;;0.25;0.25;;;9.10;99.90;;;;;;5035373;28;20253;-67
2022/11/05 09:27:09;;;;;;;0.00;0.00;;;9.10;99.90;;;;;;5046801;28;20177;-67
2022/11/05 09:29:35;;;;;;;0.00;0.00;;;9.10;99.90;;;;;;5054099;28;20224;-66
2022/11/05 09:32:01;;;;;;;0.00;0.00;;;9.20;99.90;;;;;;5061177;28;20235;-66
2022/11/05 09:34:27;;;;;;;0.15;0.15;;;9.30;99.90;;;;;;5057356;28;20185;-67
2022/11/05 09:36:52;;;;;;;0.30;0.30;;;9.30;99.90;;;;;;5055988;28;20641;-67
2022/11/05 09:39:18;;;;;;;0.00;0.00;;;9.30;99.90;;;;;;5055181;28;20600;-67
2022/11/05 09:41:45;;;;;;;0.20;0.20;;;9.30;99.90;;;;;;5054464;28;20235;-67
2022/11/05 09:44:27;;;;;;;0.00;0.00;;;9.30;99.90;;;;;;5054081;28;20178;-67
2022/11/05 09:46:59;;;;;;;0.20;0.20;;;9.40;99.90;;;;;;5055326;28;20193;-67
2022/11/05 09:49:38;;;;;;;0.00;0.00;;;9.40;99.90;;;;;;5062606;28;20208;-67
2022/11/05 09:52:05;;;;;;;0.00;0.00;;;9.40;99.90;;;;;;5062036;28;20652;-67
2022/11/05 09:54:32;;;;;;;0.00;0.00;;;9.50;99.90;;;;;;5068746;28;20260;-67
2022/11/05 09:57:00;;;;;;;0.20;0.20;;;9.50;99.90;;;;;;5060968;28;20181;-67
2022/11/05 09:59:45;;;;;;;0.00;0.00;;;9.60;99.90;;;;;;5052540;28;20189;-67
2022/11/05 10:02:22;;;;;;;0.25;0.15;;;9.60;99.90;;;;;;5052960;28;20264;-67
2022/11/05 10:04:50;;;;;;;0.00;0.00;;;9.60;99.90;;;;;;5045488;28;20185;-67
2022/11/05 10:07:20;;;;;;;0.08;0.08;;;9.60;99.90;;;;;;5053754;28;20217;-67
2022/11/05 10:09:50;;;;;;;0.20;0.20;;;9.60;99.90;;;;;;5051694;28;20201;-67
2022/11/05 10:12:20;;;;;;;0.30;0.30;;;9.60;99.90;;;;;;5054122;28;20268;-67
2022/11/05 10:14:50;;;;;;;0.00;0.00;;;9.60;99.90;;;;;;5053435;28;20197;-67
2022/11/05 10:17:21;;;;;;;0.22;0.22;;;9.70;99.90;;;;;;5050942;28;20185;-68
2022/11/05 10:19:58;;;;;;;0.00;0.00;;;9.70;99.90;;;;;;5051880;28;20208;-68
2022/11/05 10:22:24;;;;;;;0.03;0.03;;;9.70;99.90;;;;;;5053287;28;20177;-68
2022/11/05 10:24:50;;;;;;;0.00;0.00;;;9.70;99.90;;;;;;5052996;28;20238;-67
2022/11/05 10:27:18;;;;;;;0.20;0.20;;;9.70;99.90;;;;;;5053624;28;20189;-67
2022/11/05 10:29:43;;;;;;;0.00;0.00;;;9.80;99.90;;;;;;5053086;28;20213;-67
2022/11/05 10:32:16;;;;;;;0.00;0.00;;;9.80;99.90;;;;;;5052713;28;20184;-67
2022/11/05 10:34:42;;;;;;;0.10;0.10;;;9.90;99.90;;;;;;5034045;28;20244;-67
2022/11/05 10:37:09;;;;;;;0.10;0.10;;;10.00;99.90;;;;;;5051221;28;20180;-67
2022/11/05 10:39:35;;;;;;;0.85;0.85;;;10.10;99.90;;;;;;5053664;28;20193;-67
2022/11/05 10:42:03;;;;;;;0.00;0.00;;;10.20;99.90;;;;;;5053941;28;20169;-67
2022/11/05 10:44:46;;;;;;;0.00;0.00;;;10.40;99.90;;;;;;5053494;28;20192;-67
2022/11/05 10:47:12;;;;;;;0.00;0.00;;;10.60;99.90;;;;;;5053414;28;20177;-67
2022/11/05 10:49:59;;;;;;;0.00;0.00;;;10.80;99.90;;;;;;5053380;28;20733;-67
2022/11/05 10:52:37;;;;;;;0.28;0.25;;;11.00;99.90;;;;;;5053055;28;20273;-67
2022/11/05 10:55:13;;;;;;;0.00;0.00;;;11.20;99.90;;;;;;5052959;28;20189;-67
2022/11/05 10:57:40;;;;;;;0.00;0.00;;;11.30;99.90;;;;;;5053153;28;20177;-67
2022/11/05 11:00:17;;;;;;;0.00;0.00;;;11.30;99.90;;;;;;5052970;28;20204;-67
2022/11/05 11:02:49;;;;;;;0.13;0.13;;;11.30;99.90;;;;;;5032198;28;20178;-67
2022/11/05 11:05:38;;;;;;;0.20;0.20;;;11.40;99.90;;;;;;5049726;28;20185;-68
2022/11/05 11:08:21;;;;;;;0.00;0.00;;;11.40;99.90;;;;;;5052852;28;20566;-67
2022/11/05 11:10:52;;;;;;;0.00;0.00;;;11.60;99.90;;;;;;5052532;28;20221;-68
2022/11/05 11:13:46;;;;;;;0.00;0.00;;;11.80;99.90;;;;;;5053255;28;20178;-67
2022/11/05 11:16:19;;;;;;;0.00;0.00;;;11.90;99.90;;;;;;5052967;28;20235;-67
2022/11/05 11:18:45;;;;;;;0.20;0.20;;;11.90;99.90;;;;;;5052868;28;20182;-67
2022/11/05 11:21:18;;;;;;;0.00;0.00;;;11.90;99.90;;;;;;5052014;28;20231;-68
2022/11/05 11:23:53;;;;;;;0.00;0.00;;;12.00;99.90;;;;;;5052729;28;20672;-67
2022/11/05 11:26:20;;;;;;;0.00;0.00;;;12.00;99.90;;;;;;5052366;28;20177;-68
2022/11/05 11:29:16;;;;;;;0.00;0.00;;;11.90;99.90;;;;;;5052422;28;20273;-67
2022/11/05 11:31:42;;;;;;;0.00;0.00;;;11.90;99.90;;;;;;5051992;28;20205;-67
2022/11/05 11:34:40;;;;;;;0.00;0.00;;;11.80;99.90;;;;;;5052818;28;20177;-67
2022/11/05 11:37:09;;;;;;;0.00;0.00;;;11.80;99.90;;;;;;5052375;28;20221;-67
2022/11/05 11:39:37;;;;;;;1.27;0.17;;;11.90;99.90;;;;;;5052799;28;20257;-67
2022/11/05 11:42:12;;;;;;;0.20;0.20;;;12.00;99.90;;;;;;5052641;28;20179;-68
2022/11/05 11:44:44;;;;;;;0.00;0.00;;;12.10;99.90;;;;;;5052691;28;20177;-67
2022/11/05 11:47:13;;;;;;;0.10;0.10;;;12.10;99.90;;;;;;5052593;28;20256;-67
2022/11/05 11:49:52;;;;;;;0.00;0.00;;;12.10;99.90;;;;;;5052586;28;20221;-67
2022/11/05 11:52:38;;;;;;;0.00;0.00;;;12.00;99.90;;;;;;5052442;28;20192;-67
2022/11/05 11:55:12;;;;;;;0.00;0.00;;;12.00;99.90;;;;;;5052227;28;20660;-67
2022/11/05 11:57:45;;;;;;;0.10;0.10;;;12.10;99.90;;;;;;5052423;28;20177;-67
2022/11/05 12:00:12;;;;;;;0.00;0.00;;;12.10;99.90;;;;;;5052458;28;20184;-67
2022/11/05 12:03:12;;;;;;;1.08;0.25;;;12.00;99.90;;;;;;5052338;28;20235;-67
2022/11/05 12:05:54;;;;;;;0.00;0.00;;;11.90;99.90;;;;;;5052231;28;20186;-67
2022/11/05 12:08:53;;;;;;;0.00;0.00;;;11.80;99.90;;;;;;5052078;28;20739;-67
2022/11/05 12:11:22;;;;;;;0.00;0.00;;;11.80;99.90;;;;;;5052183;28;20213;-67
2022/11/05 12:13:58;;;;;;;0.38;0.38;;;11.80;99.90;;;;;;5052209;28;20189;-67
2022/11/05 12:16:36;;;;;;;0.00;0.00;;;11.80;99.90;;;;;;5052215;28;20255;-67
2022/11/05 12:19:25;;;;;;;0.28;0.10;;;11.80;99.90;;;;;;5052128;28;20252;-67
2022/11/05 12:22:03;;;;;;;0.00;0.00;;;11.80;99.90;;;;;;5050920;28;20179;-67
2022/11/05 12:24:51;;;;;;;0.00;0.00;;;11.70;99.90;;;;;;5052142;28;20177;-67
2022/11/05 12:27:28;;;;;;;0.00;0.00;;;11.70;99.90;;;;;;5051993;28;20182;-67
2022/11/05 12:30:10;;;;;;;0.05;0.05;;;11.60;99.90;;;;;;5052100;28;20260;-67
2022/11/05 12:33:18;;;;;;;0.00;0.00;;;11.50;99.90;;;;;;5051576;28;20181;-67
2022/11/05 12:36:05;;;;;;;0.00;0.00;;;11.50;99.90;;;;;;5051944;28;20675;-67
2022/11/05 12:38:47;;;;;;;0.00;0.00;;;11.60;99.90;;;;;;5052023;28;20184;-67
2022/11/05 12:41:19;;;;;;;0.00;0.00;;;11.60;99.90;;;;;;5051988;28;20170;-67
2022/11/05 12:43:54;;;;;;;0.00;0.00;;;11.60;99.90;;;;;;5052010;28;20258;-67
2022/11/05 12:46:23;;;;;;;0.00;0.00;;;11.60;99.90;;;;;;5052103;28;20180;-67
2022/11/05 12:49:33;;;;;;;0.00;0.00;;;11.60;99.90;;;;;;5050589;28;20169;-67
2022/11/05 12:52:36;;;;;;;0.25;0.25;;;11.70;99.90;;;;;;5051801;28;20204;-67
2022/11/05 12:55:14;;;;;;;0.10;0.10;;;11.80;99.90;;;;;;5051828;28;20709;-67
2022/11/05 12:57:41;;;;;;;0.10;0.10;;;11.90;99.90;;;;;;5051725;28;20260;-67
2022/11/05 13:00:15;;;;;;;0.32;0.32;;;11.90;99.90;;;;;;5051711;28;20695;-67
2022/11/05 13:03:13;;;;;;;0.00;0.00;;;12.00;99.90;;;;;;5050693;28;20193;-67
2022/11/05 13:05:52;;;;;;;0.05;0.05;;;12.00;99.90;;;;;;5049903;28;20193;-67
2022/11/05 13:08:22;;;;;;;0.00;0.00;;;12.00;99.90;;;;;;5050497;28;20596;-66
2022/11/05 13:11:05;;;;;;;0.10;0.10;;;12.10;99.90;;;;;;5050646;28;20632;-67
2022/11/05 13:13:37;;;;;;;1.48;0.63;;;12.20;99.90;;;;;;5031561;28;20261;-66
2022/11/05 13:16:05;;;;;;;0.00;0.00;;;12.30;99.90;;;;;;5040428;28;20182;-66
2022/11/05 13:18:41;;;;;;;0.00;0.00;;;12.40;99.90;;;;;;5051426;28;20628;-66
2022/11/05 13:21:08;;;;;;;0.00;0.00;;;12.50;99.90;;;;;;5051405;28;20235;-66
2022/11/05 13:24:06;;;;;;;0.00;0.00;;;12.40;99.90;;;;;;5051576;28;20166;-65
2022/11/05 13:26:59;;;;;;;0.00;0.00;;;12.30;99.90;;;;;;5025969;28;20273;-65
2022/11/05 13:29:37;;;;;;;0.00;0.00;;;12.10;99.90;;;;;;5051354;28;20200;-65
2022/11/05 13:32:31;;;;;;;0.00;0.00;;;11.80;99.90;;;;;;5052605;28;20256;-66
2022/11/05 13:35:03;;;;;;;0.08;0.08;;;11.60;99.90;;;;;;5048667;28;20194;-66
2022/11/05 13:40:29;;;;;;;0.08;0.08;;;11.30;99.90;;;;;;5051288;28;20530;-66
2022/11/05 13:43:21;;;;;;;0.15;0.15;;;11.10;99.90;;;;;;5050095;28;20178;-66
2022/11/05 13:46:01;;;;;;;0.00;0.00;;;11.10;99.90;;;;;;5044641;28;20181;-66
2022/11/05 13:48:37;;;;;;;0.00;0.00;;;11.10;99.90;;;;;;5054736;28;20181;-65
2022/11/05 13:51:05;;;;;;;0.00;0.00;;;11.10;99.90;;;;;;5054605;28;20687;-66
2022/11/05 13:54:06;;;;;;;0.00;0.00;;;11.00;99.90;;;;;;5054021;28;20177;-66
2022/11/05 13:56:53;;;;;;;0.00;0.00;;;11.00;99.90;;;;;;5034817;28;20256;-66
2022/11/05 13:59:40;;;;;;;0.00;0.00;;;11.00;99.90;;;;;;5050779;28;20183;-66